Time;durP1;ratioP1;P1;durP2;ratioP2;P2;SDS_P1;SDS_P2;PMS_P1;PMS_P2;Temp;Humidity;BMP_temperature;BMP_pressure;BME280_temperature;BME280_humidity;BME280_pressure;Samples;Min_cycle;Max_cycle;Signal;HPM_P1;HPM_P2
2021/04/19 00:00:21;;;;;;;23.65;14.80;;;7.10;97.70;;;;;;6074100;23;20488;-86
2021/04/19 00:02:47;;;;;;;22.70;13.82;;;7.10;97.80;;;;;;6124729;23;20017;-85
2021/04/19 00:05:15;;;;;;;27.92;14.07;;;7.00;97.80;;;;;;6123966;23;20170;-86
2021/04/19 00:07:41;;;;;;;26.25;15.48;;;7.00;97.80;;;;;;6124712;23;20018;-86
2021/04/19 00:10:08;;;;;;;24.75;14.77;;;7.00;97.90;;;;;;6123739;23;20461;-86
2021/04/19 00:12:35;;;;;;;24.52;13.90;;;7.00;97.90;;;;;;6099491;23;20021;-86
2021/04/19 00:15:01;;;;;;;22.83;13.77;;;6.90;98.10;;;;;;6100827;23;20464;-86
2021/04/19 00:17:28;;;;;;;22.75;14.07;;;6.90;98.00;;;;;;6102553;23;20013;-86
2021/04/19 00:19:54;;;;;;;24.77;13.90;;;6.90;97.90;;;;;;6124952;23;20044;-86
2021/04/19 00:22:20;;;;;;;22.67;13.85;;;6.90;98.00;;;;;;6099757;23;20018;-86
2021/04/19 00:24:46;;;;;;;25.27;13.52;;;6.90;97.90;;;;;;6077680;23;20017;-86
2021/04/19 00:27:11;;;;;;;21.77;13.48;;;6.90;98.10;;;;;;6077503;23;20040;-86
2021/04/19 00:29:37;;;;;;;22.73;13.70;;;6.90;98.00;;;;;;6101595;23;20476;-86
2021/04/19 00:32:03;;;;;;;27.90;15.10;;;6.90;98.00;;;;;;6149886;23;20355;-86
2021/04/19 00:34:29;;;;;;;25.77;14.68;;;6.90;98.10;;;;;;6152093;23;20009;-86
2021/04/19 00:36:55;;;;;;;22.98;15.00;;;6.90;98.10;;;;;;6102273;23;20018;-86
2021/04/19 00:39:20;;;;;;;27.65;15.00;;;6.80;98.60;;;;;;6102551;23;20132;-86
2021/04/19 00:41:47;;;;;;;24.13;15.00;;;6.80;98.10;;;;;;6098997;23;20024;-86
2021/04/19 00:44:13;;;;;;;25.48;15.65;;;6.80;98.30;;;;;;6077427;23;20018;-86
2021/04/19 00:46:39;;;;;;;35.08;16.23;;;6.80;98.30;;;;;;6101941;23;20053;-86
2021/04/19 00:49:05;;;;;;;27.30;16.40;;;6.80;98.30;;;;;;6101468;23;20108;-86
2021/04/19 00:51:31;;;;;;;33.35;16.45;;;6.80;98.30;;;;;;6123832;23;20488;-86
2021/04/19 00:53:58;;;;;;;29.67;16.70;;;6.80;98.30;;;;;;6101692;23;20018;-86
2021/04/19 00:56:24;;;;;;;28.02;16.60;;;6.80;98.20;;;;;;6101653;23;20013;-86
2021/04/19 00:58:50;;;;;;;26.45;15.30;;;6.80;98.10;;;;;;6101091;23;20083;-85
2021/04/19 01:01:16;;;;;;;23.80;14.07;;;6.80;98.30;;;;;;6098800;23;20488;-86
2021/04/19 01:03:43;;;;;;;25.20;15.20;;;6.80;98.20;;;;;;6125629;23;20009;-86
2021/04/19 01:06:10;;;;;;;26.30;15.07;;;6.80;98.20;;;;;;6125748;23;20021;-86
2021/04/19 01:08:37;;;;;;;25.80;14.82;;;6.80;98.30;;;;;;6126563;23;20024;-85
2021/04/19 01:11:03;;;;;;;23.35;14.38;;;6.80;98.20;;;;;;6099903;23;20018;-86
2021/04/19 01:13:30;;;;;;;23.05;13.35;;;6.80;98.10;;;;;;6125602;23;20020;-86
2021/04/19 01:15:55;;;;;;;21.85;12.48;;;6.80;98.40;;;;;;6101415;23;20033;-86
2021/04/19 01:18:21;;;;;;;22.55;12.98;;;6.90;98.20;;;;;;6101503;23;20021;-86
2021/04/19 01:20:48;;;;;;;25.80;13.48;;;6.90;98.20;;;;;;6123778;23;20443;-86
2021/04/19 01:23:16;;;;;;;18.38;12.13;;;6.90;98.10;;;;;;6124963;23;20056;-86
2021/04/19 01:25:42;;;;;;;16.75;11.18;;;6.90;98.10;;;;;;6101504;23;20112;-86
2021/04/19 01:28:09;;;;;;;18.70;12.32;;;7.00;98.20;;;;;;6123144;23;20057;-87
2021/04/19 01:30:40;;;;;;;22.67;12.27;;;7.00;98.10;;;;;;6099362;23;20148;-86
2021/04/19 01:33:06;;;;;;;19.98;12.60;;;7.00;98.10;;;;;;6124925;23;20013;-86
2021/04/19 01:35:32;;;;;;;21.33;12.32;;;7.00;98.00;;;;;;6125180;23;20527;-86
2021/04/19 01:37:58;;;;;;;22.05;12.20;;;7.00;98.10;;;;;;6152092;23;20017;-86
2021/04/19 01:40:24;;;;;;;20.92;11.32;;;7.00;98.10;;;;;;6124025;23;20024;-86
2021/04/19 01:42:50;;;;;;;18.60;11.45;;;7.00;98.10;;;;;;6076111;23;20018;-87
2021/04/19 01:45:17;;;;;;;20.05;11.23;;;7.10;98.30;;;;;;6101378;23;20041;-87
2021/04/19 01:47:44;;;;;;;19.98;10.73;;;7.10;98.20;;;;;;6151532;23;20024;-86
2021/04/19 01:50:16;;;;;;;19.42;12.02;;;7.00;98.20;;;;;;6126179;23;20013;-87
2021/04/19 01:52:42;;;;;;;23.52;11.25;;;7.00;98.10;;;;;;6124261;23;20014;-86
2021/04/19 01:55:12;;;;;;;19.25;11.05;;;7.00;98.40;;;;;;6125105;23;20028;-87
2021/04/19 01:57:40;;;;;;;24.73;12.27;;;7.00;98.20;;;;;;6100489;23;20013;-86
2021/04/19 02:00:09;;;;;;;19.25;11.52;;;7.00;98.30;;;;;;6125226;23;20080;-87
2021/04/19 02:02:52;;;;;;;21.83;11.10;;;7.00;98.30;;;;;;6123779;23;20021;-86
2021/04/19 02:05:28;;;;;;;26.17;12.30;;;7.00;98.30;;;;;;6124833;23;20068;-86
2021/04/19 02:08:05;;;;;;;26.02;12.68;;;7.00;98.20;;;;;;6101274;23;20020;-87
2021/04/19 02:10:43;;;;;;;21.75;12.20;;;7.00;98.40;;;;;;6149582;23;20017;-86
2021/04/19 02:13:19;;;;;;;19.80;11.93;;;7.00;98.40;;;;;;6124698;23;20444;-86
2021/04/19 02:16:06;;;;;;;19.55;11.95;;;6.90;98.50;;;;;;6151434;23;20043;-86
2021/04/19 02:19:09;;;;;;;22.88;12.48;;;7.00;98.50;;;;;;6125659;23;20068;-86
2021/04/19 02:21:41;;;;;;;20.70;11.55;;;7.00;98.50;;;;;;6123795;23;20045;-87
2021/04/19 02:24:12;;;;;;;19.15;11.43;;;7.00;98.70;;;;;;6124755;23;20021;-87
2021/04/19 02:26:44;;;;;;;21.15;11.43;;;7.00;98.70;;;;;;6151035;23;20020;-87
2021/04/19 02:29:47;;;;;;;20.58;11.50;;;7.00;98.70;;;;;;6125685;23;20068;-87
2021/04/19 02:32:21;;;;;;;21.85;11.77;;;7.10;98.70;;;;;;6093040;23;20476;-87
2021/04/19 02:34:50;;;;;;;22.70;12.52;;;7.10;98.50;;;;;;6124960;23;20017;-87
2021/04/19 02:37:18;;;;;;;24.80;13.15;;;7.20;98.50;;;;;;6125922;23;20037;-87
2021/04/19 02:39:48;;;;;;;18.77;11.48;;;7.30;98.50;;;;;;6100221;23;20020;-87
2021/04/19 02:42:16;;;;;;;21.13;11.45;;;7.30;98.80;;;;;;6149751;23;20104;-86
2021/04/19 02:44:46;;;;;;;20.77;12.23;;;7.40;98.40;;;;;;6100725;23;20013;-87
2021/04/19 02:47:15;;;;;;;21.33;12.43;;;7.40;98.40;;;;;;6124565;23;20468;-86
2021/04/19 02:49:41;;;;;;;20.88;12.32;;;7.40;98.40;;;;;;6100150;23;20017;-86
2021/04/19 02:52:10;;;;;;;20.27;12.00;;;7.40;98.30;;;;;;6123402;23;20441;-86
2021/04/19 02:54:39;;;;;;;21.45;12.32;;;7.50;98.30;;;;;;6124787;23;20099;-87
2021/04/19 02:57:19;;;;;;;21.75;13.57;;;7.50;98.30;;;;;;6125608;23;20021;-87
2021/04/19 02:59:48;;;;;;;21.00;12.55;;;7.50;98.20;;;;;;6125086;23;20018;-87
2021/04/19 03:02:14;;;;;;;19.35;12.10;;;7.50;98.20;;;;;;6150795;23;20017;-86
2021/04/19 03:04:41;;;;;;;17.95;11.77;;;7.60;98.30;;;;;;6101206;23;20041;-87
2021/04/19 03:07:09;;;;;;;21.63;13.38;;;7.60;98.20;;;;;;6099824;23;20041;-87
2021/04/19 03:09:41;;;;;;;19.90;13.25;;;7.70;98.20;;;;;;6125248;23;20432;-86
2021/04/19 03:12:09;;;;;;;26.88;14.63;;;7.70;98.20;;;;;;6123422;23;20022;-86
2021/04/19 03:14:52;;;;;;;19.45;14.15;;;7.70;98.10;;;;;;6124736;23;20028;-87
2021/04/19 03:17:23;;;;;;;23.70;14.07;;;7.80;98.20;;;;;;6099559;23;20360;-86
2021/04/19 03:20:00;;;;;;;23.05;14.57;;;7.80;98.10;;;;;;6125008;23;20064;-86
2021/04/19 03:22:28;;;;;;;27.95;15.23;;;7.80;98.10;;;;;;6122956;23;20017;-86
2021/04/19 03:24:55;;;;;;;27.27;14.93;;;7.90;98.10;;;;;;6124294;23;20017;-87
2021/04/19 03:27:24;;;;;;;24.20;13.77;;;7.90;98.10;;;;;;6124325;23;20022;-87
2021/04/19 03:29:49;;;;;;;24.10;14.45;;;7.90;98.10;;;;;;6123542;23;20382;-86
2021/04/19 03:32:19;;;;;;;24.83;15.32;;;7.90;98.00;;;;;;6097789;23;20025;-86
2021/04/19 03:34:46;;;;;;;27.67;16.48;;;7.90;98.10;;;;;;6124435;23;20478;-86
2021/04/19 03:37:22;;;;;;;24.85;16.92;;;8.00;98.10;;;;;;6124178;23;20076;-87
2021/04/19 03:40:02;;;;;;;23.10;15.98;;;7.90;98.10;;;;;;6124281;23;20018;-87
2021/04/19 03:42:30;;;;;;;25.13;14.45;;;7.90;98.10;;;;;;6098650;23;20018;-86
2021/04/19 03:44:58;;;;;;;25.25;16.25;;;7.90;98.10;;;;;;6124468;23;20017;-87
2021/04/19 03:47:26;;;;;;;24.23;15.82;;;7.90;98.10;;;;;;6100275;23;20049;-87
2021/04/19 03:49:58;;;;;;;25.42;16.02;;;7.90;98.20;;;;;;6123773;23;20017;-87
2021/04/19 03:52:30;;;;;;;25.17;16.67;;;8.00;98.20;;;;;;6148604;23;20013;-87
2021/04/19 03:54:57;;;;;;;22.50;15.90;;;8.00;98.20;;;;;;6124901;23;20025;-87
2021/04/19 03:57:24;;;;;;;25.42;15.73;;;8.00;98.20;;;;;;6099240;23;20702;-86
2021/04/19 03:59:54;;;;;;;25.05;16.33;;;8.00;98.20;;;;;;6100096;23;20017;-87
2021/04/19 04:02:25;;;;;;;34.28;17.88;;;8.00;98.20;;;;;;6122729;23;20024;-86
2021/04/19 04:04:51;;;;;;;27.92;16.92;;;8.00;98.20;;;;;;6100735;23;20535;-86
2021/04/19 04:07:18;;;;;;;28.77;17.77;;;8.00;98.20;;;;;;6123663;23;20017;-86
2021/04/19 04:09:45;;;;;;;25.25;17.30;;;8.00;98.20;;;;;;6124164;23;20006;-86
2021/04/19 04:12:12;;;;;;;26.02;17.60;;;8.00;98.30;;;;;;6074298;23;20470;-86
2021/04/19 04:14:48;;;;;;;25.88;18.08;;;7.90;98.30;;;;;;6100486;23;20009;-86
2021/04/19 04:17:15;;;;;;;26.58;17.75;;;8.00;98.30;;;;;;6123705;23;20020;-87
2021/04/19 04:19:41;;;;;;;27.35;17.80;;;8.00;98.30;;;;;;6099441;23;20022;-87
2021/04/19 04:22:08;;;;;;;26.05;18.40;;;8.00;98.40;;;;;;6098795;23;20092;-87
2021/04/19 04:24:35;;;;;;;30.90;20.52;;;8.10;98.40;;;;;;6124571;23;20024;-87
2021/04/19 04:27:01;;;;;;;33.60;19.27;;;8.10;98.40;;;;;;6099746;23;20013;-86
2021/04/19 04:29:27;;;;;;;35.10;21.23;;;8.10;98.40;;;;;;6099643;23;20024;-86
2021/04/19 04:31:53;;;;;;;29.15;17.83;;;8.10;98.70;;;;;;6121989;23;20021;-87
2021/04/19 04:34:18;;;;;;;26.05;19.58;;;8.10;98.40;;;;;;6100492;23;20065;-87
2021/04/19 04:36:44;;;;;;;30.63;20.17;;;8.20;98.40;;;;;;6100548;23;20036;-85
2021/04/19 04:39:10;;;;;;;31.98;19.63;;;8.10;98.40;;;;;;6099488;23;20014;-87
2021/04/19 04:41:36;;;;;;;36.15;21.10;;;8.10;98.30;;;;;;6121778;23;20096;-86
2021/04/19 04:44:03;;;;;;;32.38;18.73;;;8.10;98.30;;;;;;6150126;23;20032;-86
2021/04/19 04:46:34;;;;;;;30.42;18.98;;;8.10;98.30;;;;;;6123458;23;20018;-86
2021/04/19 04:49:06;;;;;;;27.95;19.65;;;8.00;98.30;;;;;;6149634;23;20456;-87
2021/04/19 04:51:34;;;;;;;32.70;20.77;;;8.00;98.40;;;;;;6124124;23;20026;-86
2021/04/19 04:54:09;;;;;;;29.55;19.17;;;7.90;98.40;;;;;;6125479;23;20536;-86
2021/04/19 04:56:39;;;;;;;30.95;19.92;;;7.90;98.40;;;;;;6124560;23;20021;-86
2021/04/19 04:59:05;;;;;;;30.77;20.25;;;7.90;98.40;;;;;;6148998;23;20023;-88
2021/04/19 05:01:32;;;;;;;30.65;20.77;;;7.80;98.50;;;;;;6098988;23;20017;-86
2021/04/19 05:04:00;;;;;;;32.35;20.63;;;7.80;98.50;;;;;;6105074;23;20460;-87
2021/04/19 05:06:27;;;;;;;29.27;20.58;;;7.80;98.60;;;;;;6125787;23;20018;-85
2021/04/19 05:08:55;;;;;;;34.28;20.85;;;7.80;98.70;;;;;;6125914;23;20036;-86
2021/04/19 05:11:21;;;;;;;37.28;22.52;;;7.90;98.70;;;;;;6098693;23;20101;-86
2021/04/19 05:13:47;;;;;;;29.60;20.83;;;7.90;98.80;;;;;;6076817;23;20461;-86
2021/04/19 05:16:26;;;;;;;33.03;20.80;;;7.90;98.80;;;;;;6125210;23;20384;-85
2021/04/19 05:18:52;;;;;;;35.95;21.77;;;8.00;98.90;;;;;;6151157;23;20020;-84
2021/04/19 05:21:19;;;;;;;29.52;21.00;;;8.00;98.80;;;;;;6098805;23;20044;-86
2021/04/19 05:23:44;;;;;;;30.98;21.15;;;8.00;98.90;;;;;;6101148;23;20069;-85
2021/04/19 05:26:11;;;;;;;34.97;22.90;;;8.10;98.90;;;;;;6101413;23;20019;-87
2021/04/19 05:28:40;;;;;;;34.88;22.20;;;8.10;98.80;;;;;;6125345;23;20025;-87
2021/04/19 05:31:06;;;;;;;34.42;21.15;;;8.20;98.80;;;;;;6122083;23;20024;-88
2021/04/19 05:33:32;;;;;;;30.92;20.17;;;8.20;98.80;;;;;;6124252;23;20013;-87
2021/04/19 05:35:57;;;;;;;29.52;20.90;;;8.20;98.80;;;;;;6123796;23;20068;-87
2021/04/19 05:38:24;;;;;;;31.40;19.85;;;8.30;98.80;;;;;;6100614;23;20020;-87
2021/04/19 05:40:51;;;;;;;32.75;20.77;;;8.30;98.80;;;;;;6122013;23;20084;-87
2021/04/19 05:43:17;;;;;;;34.80;21.15;;;8.40;98.80;;;;;;6068296;23;20088;-87
2021/04/19 05:45:47;;;;;;;31.02;22.38;;;8.40;98.80;;;;;;6094897;23;20025;-86
2021/04/19 05:48:13;;;;;;;31.00;19.73;;;8.40;98.80;;;;;;6119676;23;20017;-87
2021/04/19 05:50:41;;;;;;;37.75;21.23;;;8.50;98.70;;;;;;6143670;23;20017;-86
2021/04/19 05:53:11;;;;;;;30.17;20.55;;;8.50;98.70;;;;;;6121075;23;20108;-86
2021/04/19 05:55:36;;;;;;;37.60;22.13;;;8.60;98.70;;;;;;6120059;23;20025;-86
2021/04/19 05:58:17;;;;;;;32.25;20.30;;;8.60;98.60;;;;;;6096035;23;20325;-87
2021/04/19 06:00:57;;;;;;;30.40;20.73;;;8.60;98.60;;;;;;6119074;23;20048;-86
2021/04/19 06:03:48;;;;;;;29.17;19.42;;;8.50;98.60;;;;;;6118370;23;20017;-87
2021/04/19 06:06:29;;;;;;;36.70;20.98;;;8.50;98.60;;;;;;6123377;23;20101;-87
2021/04/19 06:09:18;;;;;;;31.67;19.42;;;8.50;98.60;;;;;;6123253;23;20024;-87
2021/04/19 06:11:46;;;;;;;33.67;20.05;;;8.50;98.70;;;;;;6113183;23;20022;-87
2021/04/19 06:14:15;;;;;;;28.25;19.40;;;8.40;98.70;;;;;;6121292;23;20013;-86
2021/04/19 06:16:42;;;;;;;30.27;20.17;;;8.40;98.70;;;;;;6144237;23;20430;-86
2021/04/19 06:19:14;;;;;;;25.25;17.83;;;8.40;98.80;;;;;;6094409;23;20020;-87
2021/04/19 06:21:41;;;;;;;25.83;17.20;;;8.50;98.80;;;;;;6117743;23;20031;-90
2021/04/19 06:24:08;;;;;;;32.75;18.10;;;8.50;98.90;;;;;;6095992;23;20020;-87
2021/04/19 06:26:35;;;;;;;29.60;19.05;;;8.50;98.90;;;;;;6119005;23;20338;-87
2021/04/19 06:29:05;;;;;;;26.77;18.13;;;8.60;99.00;;;;;;6094776;23;20017;-86
2021/04/19 06:31:32;;;;;;;24.08;17.10;;;8.70;98.90;;;;;;6118685;23;20018;-86
2021/04/19 06:34:07;;;;;;;25.23;14.68;;;8.80;98.90;;;;;;6120030;23;20456;-86
2021/04/19 06:36:40;;;;;;;23.30;14.82;;;8.90;98.90;;;;;;6121276;23;20492;-87
2021/04/19 06:39:09;;;;;;;23.70;14.73;;;9.00;98.90;;;;;;6097071;23;20013;-87
2021/04/19 06:41:35;;;;;;;24.15;15.57;;;9.10;98.80;;;;;;6120272;23;20025;-87
2021/04/19 06:44:01;;;;;;;28.02;16.52;;;9.10;98.60;;;;;;6119712;23;20475;-87
2021/04/19 06:46:31;;;;;;;22.50;15.48;;;9.10;98.50;;;;;;6120317;23;20099;-88
2021/04/19 06:48:57;;;;;;;24.05;15.05;;;9.20;98.50;;;;;;6146195;23;20491;-86
2021/04/19 06:51:23;;;;;;;21.95;15.23;;;9.20;98.40;;;;;;6095666;23;20484;-87
2021/04/19 06:53:51;;;;;;;21.85;14.55;;;9.20;98.30;;;;;;6122206;23;20022;-87
2021/04/19 06:56:20;;;;;;;23.52;14.93;;;9.20;98.30;;;;;;6125096;23;20349;-87
2021/04/19 06:58:50;;;;;;;22.90;15.18;;;9.20;98.30;;;;;;6121573;23;20014;-87
2021/04/19 07:01:19;;;;;;;24.77;14.65;;;9.20;98.30;;;;;;6123148;23;20024;-88
2021/04/19 07:04:04;;;;;;;18.98;13.52;;;9.20;98.40;;;;;;6121291;23;20010;-86
2021/04/19 07:06:33;;;;;;;20.20;14.13;;;9.20;98.40;;;;;;6099162;23;20092;-86
2021/04/19 07:09:04;;;;;;;20.27;13.07;;;9.20;98.40;;;;;;6123235;23;20014;-89
2021/04/19 07:11:35;;;;;;;23.50;13.03;;;9.30;98.40;;;;;;6123841;23;20048;-87
2021/04/19 07:14:02;;;;;;;22.63;13.63;;;9.30;98.40;;;;;;6125171;23;20025;-85
2021/04/19 07:16:28;;;;;;;23.23;14.07;;;9.30;98.40;;;;;;6101665;23;20064;-90
2021/04/19 07:18:53;;;;;;;20.80;13.00;;;9.30;98.30;;;;;;6124145;23;20017;-90
2021/04/19 07:21:19;;;;;;;21.25;13.50;;;9.40;98.30;;;;;;6124934;23;20017;-89
2021/04/19 07:23:46;;;;;;;19.88;12.85;;;9.40;98.30;;;;;;6125735;23;20108;-91
2021/04/19 07:26:12;;;;;;;18.08;13.07;;;9.40;98.30;;;;;;6099617;23;20396;-88
2021/04/19 07:28:38;;;;;;;16.73;11.68;;;9.40;98.30;;;;;;6102069;23;20447;-84
2021/04/19 07:31:05;;;;;;;20.73;13.05;;;9.50;98.30;;;;;;6122535;23;20013;-84
2021/04/19 07:33:33;;;;;;;21.55;14.45;;;9.50;98.30;;;;;;6124617;23;20024;-86
2021/04/19 07:36:24;;;;;;;19.15;12.30;;;9.50;98.30;;;;;;6123433;23;20100;-87
2021/04/19 07:38:51;;;;;;;20.58;12.77;;;9.50;98.30;;;;;;6149480;23;20456;-86
2021/04/19 07:41:17;;;;;;;20.40;12.80;;;9.60;98.30;;;;;;6121717;23;20009;-86
2021/04/19 07:43:44;;;;;;;21.52;14.02;;;9.60;98.30;;;;;;6102579;23;20064;-86
2021/04/19 07:46:15;;;;;;;22.98;13.00;;;9.60;98.20;;;;;;6124248;23;20033;-87
2021/04/19 07:48:46;;;;;;;19.80;13.23;;;9.60;98.30;;;;;;6101140;23;20036;-86
2021/04/19 07:51:37;;;;;;;17.75;12.43;;;9.70;98.30;;;;;;6123470;23;20019;-86
2021/04/19 07:54:12;;;;;;;20.10;12.15;;;9.80;98.20;;;;;;6151041;23;20017;-87
2021/04/19 07:56:39;;;;;;;18.55;11.60;;;9.80;98.10;;;;;;6125139;23;20107;-86
2021/04/19 07:59:26;;;;;;;17.67;11.65;;;9.90;98.00;;;;;;6125376;23;20020;-78
2021/04/19 08:02:06;;;;;;;27.90;18.15;;;10.00;98.00;;;;;;6120555;23;20021;-84
2021/04/19 08:04:33;;;;;;;17.45;12.25;;;10.00;97.90;;;;;;6147906;23;20009;-85
2021/04/19 08:07:00;;;;;;;21.92;12.38;;;10.00;97.80;;;;;;6122740;23;20021;-84
2021/04/19 08:09:28;;;;;;;15.60;11.05;;;10.10;97.80;;;;;;6124083;23;20037;-85
2021/04/19 08:11:57;;;;;;;15.38;11.48;;;10.10;97.80;;;;;;6120819;23;20100;-85
2021/04/19 08:14:28;;;;;;;16.58;10.35;;;10.20;97.80;;;;;;6098906;23;20017;-85
2021/04/19 08:17:07;;;;;;;14.10;10.82;;;10.20;97.70;;;;;;6122033;23;20009;-85
2021/04/19 08:19:34;;;;;;;21.02;11.60;;;10.30;97.70;;;;;;6098981;23;20054;-85
2021/04/19 08:22:20;;;;;;;14.30;9.70;;;10.30;97.70;;;;;;6120866;23;20084;-85
2021/04/19 08:24:47;;;;;;;16.95;10.75;;;10.40;97.60;;;;;;6123302;23;20018;-85
2021/04/19 08:27:25;;;;;;;18.40;11.27;;;10.40;97.70;;;;;;6097570;23;20047;-85
2021/04/19 08:29:51;;;;;;;13.80;9.80;;;10.40;97.70;;;;;;6122827;23;20018;-85
2021/04/19 08:32:29;;;;;;;17.58;11.43;;;10.50;97.70;;;;;;6071747;23;20017;-85
2021/04/19 08:34:55;;;;;;;14.77;9.55;;;10.50;97.70;;;;;;6100493;23;20017;-86
2021/04/19 08:37:24;;;;;;;13.77;10.05;;;10.60;97.50;;;;;;6101439;23;20025;-86
2021/04/19 08:39:52;;;;;;;14.55;10.02;;;10.60;97.50;;;;;;6152731;23;20036;-85
2021/04/19 08:42:19;;;;;;;14.55;9.70;;;10.70;97.50;;;;;;6100701;23;20089;-86
2021/04/19 08:44:46;;;;;;;13.55;9.57;;;10.70;97.50;;;;;;6126135;23;20130;-86
2021/04/19 08:47:15;;;;;;;13.55;9.95;;;10.70;97.50;;;;;;6125537;23;20017;-85
2021/04/19 08:49:41;;;;;;;12.68;9.60;;;10.80;97.40;;;;;;6125523;23;20380;-85
2021/04/19 08:52:09;;;;;;;12.18;9.50;;;10.90;97.40;;;;;;6125773;23;20452;-85
2021/04/19 08:54:35;;;;;;;12.02;8.75;;;10.90;97.40;;;;;;6126692;23;20018;-86
2021/04/19 08:57:01;;;;;;;14.65;9.57;;;11.00;97.40;;;;;;6101826;23;20061;-85
2021/04/19 08:59:27;;;;;;;15.15;9.98;;;11.00;97.40;;;;;;6103031;23;20017;-86
2021/04/19 09:01:55;;;;;;;13.02;9.63;;;11.00;97.40;;;;;;6105131;23;20048;-85
2021/04/19 09:04:24;;;;;;;14.05;10.40;;;11.10;97.30;;;;;;6127417;23;20047;-86
2021/04/19 09:06:54;;;;;;;14.77;9.45;;;11.10;97.40;;;;;;6127210;23;20040;-85
2021/04/19 09:09:32;;;;;;;10.80;8.55;;;11.10;97.30;;;;;;6103719;23;20487;-85
2021/04/19 09:12:10;;;;;;;12.98;7.72;;;11.20;97.20;;;;;;6125058;23;20483;-85
2021/04/19 09:14:45;;;;;;;12.27;7.82;;;11.20;97.20;;;;;;6125946;23;20036;-85
2021/04/19 09:17:23;;;;;;;9.63;7.40;;;11.20;97.20;;;;;;6126007;23;20096;-85
2021/04/19 09:19:59;;;;;;;10.15;7.80;;;11.30;97.20;;;;;;6126212;23;20020;-85
2021/04/19 09:22:25;;;;;;;10.27;7.70;;;11.30;97.20;;;;;;6101946;23;20043;-85
2021/04/19 09:25:15;;;;;;;10.15;7.57;;;11.40;97.20;;;;;;6128483;23;20356;-85
2021/04/19 09:27:41;;;;;;;12.38;8.02;;;11.40;97.20;;;;;;6102901;23;20109;-85
2021/04/19 09:30:43;;;;;;;10.18;7.88;;;11.50;96.70;;;;;;6152961;23;20010;-85
2021/04/19 09:33:08;;;;;;;9.52;7.72;;;11.60;96.70;;;;;;6153178;23;20237;-85
2021/04/19 09:35:42;;;;;;;12.82;9.05;;;11.60;96.70;;;;;;6126352;23;20095;-85
2021/04/19 09:38:47;;;;;;;11.70;9.40;;;11.70;96.80;;;;;;6126360;23;20032;-85
2021/04/19 09:41:15;;;;;;;12.70;8.68;;;11.70;96.90;;;;;;6151020;23;20017;-85
2021/04/19 09:43:58;;;;;;;13.02;9.20;;;11.80;96.70;;;;;;6126353;23;20352;-86
2021/04/19 09:46:28;;;;;;;12.40;8.68;;;11.90;96.80;;;;;;6125480;23;20405;-85
2021/04/19 09:48:58;;;;;;;12.13;9.68;;;12.00;96.50;;;;;;6125488;23;20464;-85
2021/04/19 09:51:31;;;;;;;11.55;9.18;;;12.10;96.30;;;;;;6150998;23;20021;-85
2021/04/19 09:53:59;;;;;;;12.68;8.82;;;12.20;96.30;;;;;;6151299;23;20096;-85
2021/04/19 09:56:36;;;;;;;13.45;8.75;;;12.40;96.20;;;;;;6126622;23;20018;-86
2021/04/19 09:59:03;;;;;;;14.60;9.95;;;12.50;96.00;;;;;;6122991;23;20021;-86
2021/04/19 10:01:30;;;;;;;13.32;9.35;;;12.50;95.80;;;;;;6123307;23;20053;-86
2021/04/19 10:03:57;;;;;;;14.57;9.52;;;12.50;95.80;;;;;;6100511;23;20017;-86
2021/04/19 10:06:36;;;;;;;13.73;9.82;;;12.50;95.90;;;;;;6124844;23;20014;-86
2021/04/19 10:09:04;;;;;;;12.15;10.70;;;12.60;96.10;;;;;;6126695;23;20032;-86
2021/04/19 10:11:33;;;;;;;15.68;10.77;;;12.70;95.70;;;;;;6114530;23;20076;-86
2021/04/19 10:14:06;;;;;;;12.48;10.55;;;12.90;95.50;;;;;;6110260;23;20093;-86
2021/04/19 10:16:50;;;;;;;14.88;10.50;;;12.90;95.20;;;;;;6126495;23;20010;-86
2021/04/19 10:19:26;;;;;;;15.38;10.70;;;13.00;95.10;;;;;;6140871;23;20029;-86
2021/04/19 10:22:05;;;;;;;13.05;10.25;;;12.90;94.80;;;;;;6124631;23;20017;-86
2021/04/19 10:24:32;;;;;;;15.38;11.85;;;12.90;95.00;;;;;;6099564;23;20022;-86
2021/04/19 10:26:58;;;;;;;18.08;11.05;;;12.90;95.20;;;;;;6100321;23;20468;-86
2021/04/19 10:29:27;;;;;;;17.75;12.60;;;12.90;95.20;;;;;;6100599;23;20100;-86
2021/04/19 10:32:02;;;;;;;14.40;11.45;;;12.80;95.00;;;;;;6124253;23;20017;-86
2021/04/19 10:34:30;;;;;;;15.52;11.85;;;12.80;95.10;;;;;;6152037;23;20024;-86
2021/04/19 10:37:02;;;;;;;16.58;11.60;;;12.80;95.20;;;;;;6100531;23;20010;-86
2021/04/19 10:39:31;;;;;;;13.15;10.82;;;12.80;95.20;;;;;;6124813;23;20017;-86
2021/04/19 10:41:59;;;;;;;15.82;10.55;;;12.80;95.00;;;;;;6123256;23;20021;-86
2021/04/19 10:44:40;;;;;;;17.83;11.43;;;12.90;94.90;;;;;;6076650;23;20017;-86
2021/04/19 10:47:08;;;;;;;17.48;11.30;;;13.00;94.70;;;;;;6124479;23;20013;-85
2021/04/19 10:49:35;;;;;;;16.52;11.02;;;13.00;94.80;;;;;;6125533;23;20076;-86
2021/04/19 10:52:05;;;;;;;12.77;10.13;;;13.00;94.80;;;;;;6098300;23;20045;-86
2021/04/19 10:54:36;;;;;;;14.10;11.20;;;13.00;94.60;;;;;;6151322;23;20112;-86
2021/04/19 10:57:04;;;;;;;13.43;9.90;;;13.00;94.70;;;;;;6125775;23;20048;-86
2021/04/19 10:59:30;;;;;;;16.80;10.73;;;13.00;94.40;;;;;;6100468;23;20021;-86
2021/04/19 11:02:05;;;;;;;12.63;10.30;;;13.00;94.50;;;;;;6098124;23;20100;-86
2021/04/19 11:04:33;;;;;;;11.60;9.85;;;13.00;94.50;;;;;;6150960;23;20017;-86
2021/04/19 11:07:24;;;;;;;16.40;10.77;;;13.10;94.50;;;;;;6151715;23;20021;-86
2021/04/19 11:10:08;;;;;;;19.02;11.07;;;13.20;94.50;;;;;;6124762;23;20092;-86
2021/04/19 11:12:34;;;;;;;12.98;10.10;;;13.50;94.50;;;;;;6097751;23;20404;-85
2021/04/19 11:15:13;;;;;;;11.13;9.45;;;13.50;94.30;;;;;;6124176;23;20028;-86
2021/04/19 11:17:39;;;;;;;13.05;9.95;;;13.40;94.00;;;;;;6098847;23;20013;-86
2021/04/19 11:20:29;;;;;;;12.95;9.70;;;13.40;94.00;;;;;;6123328;23;20564;-86
2021/04/19 11:22:55;;;;;;;19.38;10.63;;;13.40;93.90;;;;;;6099570;23;20021;-86
2021/04/19 11:25:26;;;;;;;14.75;10.55;;;13.30;94.00;;;;;;6123162;23;20377;-86
2021/04/19 11:28:13;;;;;;;18.25;11.25;;;13.30;93.80;;;;;;6124622;23;20017;-86
2021/04/19 11:30:39;;;;;;;11.60;9.18;;;13.30;93.90;;;;;;6147693;23;20025;-81
2021/04/19 11:33:10;;;;;;;18.65;10.05;;;13.40;93.90;;;;;;6148805;23;20027;-81
2021/04/19 11:35:47;;;;;;;12.20;9.38;;;13.50;94.00;;;;;;6099657;23;20018;-80
2021/04/19 11:38:22;;;;;;;14.43;10.93;;;13.60;93.50;;;;;;6099935;23;20020;-82
2021/04/19 11:40:50;;;;;;;14.43;10.98;;;13.80;93.40;;;;;;6098206;23;20021;-82
2021/04/19 11:43:23;;;;;;;12.23;9.77;;;13.90;93.20;;;;;;6123410;23;20020;-83
2021/04/19 11:46:11;;;;;;;14.68;10.20;;;14.00;92.70;;;;;;6119353;23;20087;-87
2021/04/19 11:48:41;;;;;;;13.38;10.65;;;14.10;92.30;;;;;;6099116;23;20738;-86
2021/04/19 11:51:08;;;;;;;13.55;9.88;;;14.20;92.30;;;;;;6122092;23;20010;-88
2021/04/19 11:53:36;;;;;;;15.43;10.45;;;14.10;91.80;;;;;;6122623;23;20381;-84
2021/04/19 11:56:03;;;;;;;14.23;10.75;;;14.00;91.80;;;;;;6123259;23;20016;-84
2021/04/19 11:58:29;;;;;;;15.43;10.02;;;14.00;91.70;;;;;;6124126;23;20364;-83
2021/04/19 12:00:56;;;;;;;15.43;9.85;;;13.90;91.20;;;;;;6121368;23;20456;-84
2021/04/19 12:03:22;;;;;;;12.30;10.23;;;13.90;91.50;;;;;;6098611;23;20024;-86
2021/04/19 12:05:49;;;;;;;12.98;10.27;;;13.80;91.40;;;;;;6097598;23;20032;-85
2021/04/19 12:08:14;;;;;;;16.80;10.55;;;13.70;91.50;;;;;;6121905;23;20013;-85
2021/04/19 12:10:41;;;;;;;15.27;11.05;;;13.70;91.70;;;;;;6119932;23;20025;-84
2021/04/19 12:13:13;;;;;;;19.50;13.00;;;13.70;91.60;;;;;;6097739;23;20021;-84
2021/04/19 12:15:39;;;;;;;15.80;11.32;;;13.70;91.60;;;;;;6097836;23;20049;-84
2021/04/19 12:18:05;;;;;;;19.55;12.65;;;13.80;91.80;;;;;;6100783;23;20013;-85
2021/04/19 12:20:31;;;;;;;18.65;12.18;;;13.90;91.60;;;;;;6121914;23;20534;-85
2021/04/19 12:22:57;;;;;;;14.75;11.32;;;14.00;91.90;;;;;;6073512;23;20029;-84
2021/04/19 12:25:23;;;;;;;17.25;12.00;;;14.00;91.90;;;;;;6124789;23;20014;-84
2021/04/19 12:27:48;;;;;;;15.20;12.02;;;14.00;91.60;;;;;;6126987;23;20028;-83
2021/04/19 12:30:15;;;;;;;17.85;11.73;;;14.10;91.30;;;;;;6101209;23;20029;-84
2021/04/19 12:32:41;;;;;;;17.40;10.80;;;14.10;91.20;;;;;;6100662;23;20037;-85
2021/04/19 12:35:07;;;;;;;14.02;10.50;;;14.20;91.30;;;;;;6101379;23;20017;-85
2021/04/19 12:37:33;;;;;;;17.33;11.18;;;14.30;91.10;;;;;;6102728;23;20009;-85
2021/04/19 12:39:59;;;;;;;14.23;10.43;;;14.40;91.00;;;;;;6102299;23;20018;-84
2021/04/19 12:42:24;;;;;;;13.73;10.30;;;14.50;91.10;;;;;;6100646;23;20113;-84
2021/04/19 12:44:50;;;;;;;15.40;9.77;;;14.50;90.70;;;;;;6076389;23;20017;-84
2021/04/19 12:47:16;;;;;;;13.73;9.82;;;14.60;90.40;;;;;;6102419;23;20016;-84
2021/04/19 12:49:42;;;;;;;14.82;10.00;;;14.60;90.50;;;;;;6124414;23;20022;-83